Wakefield, VA

3:53 AM EDT on September 02, 2014 (GMT -0400)
Williamsburg-jamestown | Change Station
CLOSE
Current Station
Airport
Location: Williamsburg,
Elevation: 49 ft
Nearby Weather Stations

Elev 49 ft 37.24 °N, 76.72 °W | Updated 18 minutes ago

Clear
Clear
79 °F
Feels Like 79 °F
N
4
Wind Variable Wind from West

Today
High -- | Low -- °F
--% Chance of Precip.
Yesterday
High -- | Low -- °F
Precip. -- in
6:39 AM 7:34 PM
Waxing Crescent, 49% visible
Pressure 30.01 in
Visibility 10.0 miles
Clouds Clear
Dew Point 72 °F
Humidity 78%
Rainfall 0.00 in
Snow Depth Not available.
UV 0 out of 12
Pollen 9.90 out of 12
Air Quality Not available.
Flu Activity Not available.
METAR KJGG 020735Z AUTO 26003KT 10SM CLR 26/22 A3001 RMK AO1

More Conditions Fewer Conditions

Pressure 30.01 in
Visibility 10.0 miles
Clouds Clear
Dew Point 72 °F
Humidity 78%
Rainfall 0.00 in
Snow Depth Not available.
UV 0 out of 12
Pollen 9.90 out of 12
Air Quality Not available.
Flu Activity Not available.
METAR KJGG 020735Z AUTO 26003KT 10SM CLR 26/22 A3001 RMK AO1

More Conditions Fewer Conditions

10-Day Weather Forecast

Almanac

Astronomy

Sep. 02, 2014 Rise Set
Actual Time 6:39 AM EDT 7:34 PM EDT
Civil Twilight 6:13 AM EDT 8:01 PM EDT
Nautical Twilight 5:41 AM EDT 8:32 PM EDT
Astronomical Twilight 5:09 AM EDT 9:05 PM EDT
Moon 2:11 PM EDT No Moon Set
Length of Visible Light 13h 48m
Length of Day
12h 55m
Tomorrow will be 2m 17s shorter.
Waxing Crescent, 49% of the Moon is Illuminated
Today
Waxing Crescent
Sep 2
First Quarter
Sep 8
Full
Sep 15
Last Quarter
Sep 24
New

Today's Extremes

State Highs State Lows

Community

WunderPhotos

Upload Photos

1,749,589 photos uploaded!

WunderBlogs® & News

Nearby

Snow Depth

Station Depth Elevation
No new snow has been reported.

Earthquake Activity

City Distance Mag. Time & Date
No recent earthquake activity has been reported nearby.
Minimum magnitude displayed is 2.5.

Coastal Water Temperatures

Place Temperature
No Stations Reporting

Nearby Weather Stations